Kynouria — V7VY6 — position and weather

sailwx.info

Track history (hours):
 
Tides and Currents Weather Stations Pressure Air Temp Water Temp Dewpoint Dewpoint Depression Visibility Wind Speed Wind Dir Waves Ship Positions

Kynouria

Last reported at 2018-Jan-24 09:32 UTC. Time now 2018-Feb-19 11:36 UTC.
Position S 30°25' E 030°55'.
Warning: this ship's position is 26 days out of date.

Length 229 m; draft 7.5 m.

Type: Ship. MMSI: 538004243.

Date/timePositionNaut miles runAvg speedWind from/ knotsBaromVisibWave heightAir tempDewpointWater temp
2018-Jan-24 09:32S 30°25' E 030°55'0 8.7
2018-Jan-24 09:30S 30°25' E 030°55'4 8.9
2018-Jan-24 09:00S 30°21' E 030°57'5 9.4
2018-Jan-24 08:30S 30°17' E 030°59'5 9.6
2018-Jan-24 08:00S 30°13' E 031°02'510.1
2018-Jan-24 07:30S 30°08' E 031°04'5 9.9
2018-Jan-24 07:00S 30°03' E 031°06'510.0
2018-Jan-24 06:30S 29°59' E 031°08'510.0
2018-Jan-24 06:00S 29°54' E 031°10'1 1.0
2018-Jan-24 05:29S 29°53' E 031°10'0 1.0
2018-Jan-24 05:00S 29°53' E 031°10'1 1.6
2018-Jan-24 04:29S 29°53' E 031°11'4 8.2
2018-Jan-24 04:00S 29°52' E 031°15'1 2.4
2018-Jan-24 03:30S 29°51' E 031°15'2 4.2
2018-Jan-24 03:00S 29°49' E 031°14'3 5.0
2018-Jan-24 02:21S 29°46' E 031°13'3 8.3
2018-Jan-24 02:00S 29°43' E 031°11'0 0.5
2018-Jan-24 01:30S 29°43' E 031°11'0 0.1
2018-Jan-24 01:00S 29°43' E 031°11'0 0.0
2018-Jan-24 00:30S 29°43' E 031°11'0 0.1
2018-Jan-23 23:57S 29°43' E 031°11'0 0.0
2018-Jan-23 23:30S 29°43' E 031°11'0 0.1
2018-Jan-23 23:00S 29°43' E 031°11'0 0.1
2018-Jan-23 22:30S 29°43' E 031°11'0 0.0
2018-Jan-23 21:57S 29°43' E 031°11'0 0.0
2018-Jan-23 21:30S 29°43' E 031°11'0 0.1
2018-Jan-23 20:57S 29°43' E 031°11'0 0.0
2018-Jan-23 20:30S 29°43' E 031°11'0 0.0
2018-Jan-23 20:00S 29°43' E 031°11'0 0.0
2018-Jan-23 19:30S 29°43' E 031°11'0 0.1
2018-Jan-23 19:00S 29°43' E 031°11'0 0.0
2018-Jan-23 18:30S 29°43' E 031°11'0 0.0
2018-Jan-23 18:00S 29°43' E 031°11'0 0.3
2018-Jan-23 17:30S 29°43' E 031°11'3 5.3
2018-Jan-23 17:00S 29°46' E 031°11'4 8.6
2018-Jan-23 16:30S 29°50' E 031°08'2 3.9
2018-Jan-23 16:00S 29°51' E 031°07'1 1.0
2018-Jan-23 15:30S 29°52' E 031°07'1 1.2
2018-Jan-23 15:00S 29°52' E 031°06'1 2.9
2018-Jan-23 14:30S 29°52' E 031°08'3 6.5
2018-Jan-23 14:00S 29°53' E 031°12'5 9.4
2018-Jan-23 13:31S 29°54' E 031°17'714.1
2018-Jan-23 13:00S 29°55' E 031°25'713.9
2018-Jan-23 12:30S 29°55' E 031°33'713.1
2018-Jan-23 12:00S 29°55' E 031°41'2 3.6
2018-Jan-23 11:30S 29°54' E 031°42'2 4.3
2018-Jan-23 11:00S 29°52' E 031°43'2 4.3
2018-Jan-23 10:30S 29°50' E 031°43'2 4.0
2018-Jan-23 10:00S 29°48' E 031°43'2 3.6
2018-Jan-23 09:30S 29°46' E 031°43'2 3.3
2018-Jan-23 09:00S 29°44' E 031°43'1 2.5
2018-Jan-23 08:30S 29°43' E 031°43'1 2.1
2018-Jan-23 08:00S 29°42' E 031°42'1 1.9
2018-Jan-23 07:30S 29°41' E 031°42'1 2.0
2018-Jan-23 07:00S 29°40' E 031°42'1 2.1
2018-Jan-23 06:30S 29°39' E 031°41'1 2.1
2018-Jan-23 06:00S 29°38' E 031°41'1 2.3
2018-Jan-23 05:30S 29°37' E 031°40'1 2.1
2018-Jan-23 05:00S 29°36' E 031°40'1 2.2
2018-Jan-23 04:28S 29°35' E 031°40'1 2.2
2018-Jan-23 03:52S 29°33' E 031°39'1 2.0
2018-Jan-23 03:28S 29°33' E 031°39'1 2.1
2018-Jan-23 03:01S 29°32' E 031°38'5 7.5
2018-Jan-23 02:21S 29°28' E 031°42'310.0
2018-Jan-23 02:00S 29°26' E 031°45'510.0
2018-Jan-23 01:30S 29°23' E 031°50'510.1
2018-Jan-23 01:00S 29°19' E 031°54'510.2
2018-Jan-23 00:30S 29°16' E 031°58'6 9.9
2018-Jan-22 23:55S 29°13' E 032°04'4 9.8
2018-Jan-22 23:30S 29°10' E 032°07'5 9.9
2018-Jan-22 23:00S 29°07' E 032°11'510.6
2018-Jan-22 22:30S 29°03' E 032°16'611.7
2018-Jan-22 21:59S 28°59' E 032°21'611.8
2018-Jan-22 21:30S 28°55' E 032°26'611.6
2018-Jan-22 21:00S 28°51' E 032°30'711.4
2018-Jan-22 20:24S 28°46' E 032°35'611.6
2018-Jan-22 19:55S 28°42' E 032°40'512.7
2018-Jan-22 19:30S 28°38' E 032°44'612.4
2018-Jan-22 19:00S 28°33' E 032°49'612.1
2018-Jan-22 18:30S 28°29' E 032°54'711.9
2018-Jan-22 17:56S 28°24' E 032°58'511.7
2018-Jan-22 17:30S 28°20' E 033°02'811.8
2018-Jan-22 16:52S 28°14' E 033°07'1811.8
2018-Jan-22 15:21S 27°60' E 033°20'510.6
2018-Jan-22 14:54S 27°57' E 033°24'  
Track history (hours):
 
Tides and Currents Weather Stations Pressure Air Temp Water Temp Dewpoint Dewpoint Depression Visibility Wind Speed Wind Dir Waves Ship Positions

Kynouria

Last reported at 2018-Jan-24 09:32 UTC. Time now 2018-Feb-19 11:36 UTC.
Position S 30°25' E 030°55'.
Warning: this ship's position is 26 days out of date.

Length 229 m; draft 7.5 m.

Type: Ship. MMSI: 538004243.

Date/timePositionNaut miles runAvg speedWind from/ knotsBaromVisibWave heightAir tempDewpointWater temp
2018-Jan-24 09:32S 30°25' E 030°55'0 8.7
2018-Jan-24 09:30S 30°25' E 030°55'4 8.9
2018-Jan-24 09:00S 30°21' E 030°57'5 9.4
2018-Jan-24 08:30S 30°17' E 030°59'5 9.6
2018-Jan-24 08:00S 30°13' E 031°02'510.1
2018-Jan-24 07:30S 30°08' E 031°04'5 9.9
2018-Jan-24 07:00S 30°03' E 031°06'510.0
2018-Jan-24 06:30S 29°59' E 031°08'510.0
2018-Jan-24 06:00S 29°54' E 031°10'1 1.0
2018-Jan-24 05:29S 29°53' E 031°10'0 1.0
2018-Jan-24 05:00S 29°53' E 031°10'1 1.6
2018-Jan-24 04:29S 29°53' E 031°11'4 8.2
2018-Jan-24 04:00S 29°52' E 031°15'1 2.4
2018-Jan-24 03:30S 29°51' E 031°15'2 4.2
2018-Jan-24 03:00S 29°49' E 031°14'3 5.0
2018-Jan-24 02:21S 29°46' E 031°13'3 8.3
2018-Jan-24 02:00S 29°43' E 031°11'0 0.5
2018-Jan-24 01:30S 29°43' E 031°11'0 0.1
2018-Jan-24 01:00S 29°43' E 031°11'0 0.0
2018-Jan-24 00:30S 29°43' E 031°11'0 0.1
2018-Jan-23 23:57S 29°43' E 031°11'0 0.0
2018-Jan-23 23:30S 29°43' E 031°11'0 0.1
2018-Jan-23 23:00S 29°43' E 031°11'0 0.1
2018-Jan-23 22:30S 29°43' E 031°11'0 0.0
2018-Jan-23 21:57S 29°43' E 031°11'0 0.0
2018-Jan-23 21:30S 29°43' E 031°11'0 0.1
2018-Jan-23 20:57S 29°43' E 031°11'0 0.0
2018-Jan-23 20:30S 29°43' E 031°11'0 0.0
2018-Jan-23 20:00S 29°43' E 031°11'0 0.0
2018-Jan-23 19:30S 29°43' E 031°11'0 0.1
2018-Jan-23 19:00S 29°43' E 031°11'0 0.0
2018-Jan-23 18:30S 29°43' E 031°11'0 0.0
2018-Jan-23 18:00S 29°43' E 031°11'0 0.3
2018-Jan-23 17:30S 29°43' E 031°11'3 5.3
2018-Jan-23 17:00S 29°46' E 031°11'4 8.6
2018-Jan-23 16:30S 29°50' E 031°08'2 3.9
2018-Jan-23 16:00S 29°51' E 031°07'1 1.0
2018-Jan-23 15:30S 29°52' E 031°07'1 1.2
2018-Jan-23 15:00S 29°52' E 031°06'1 2.9
2018-Jan-23 14:30S 29°52' E 031°08'3 6.5
2018-Jan-23 14:00S 29°53' E 031°12'5 9.4
2018-Jan-23 13:31S 29°54' E 031°17'714.1
2018-Jan-23 13:00S 29°55' E 031°25'713.9
2018-Jan-23 12:30S 29°55' E 031°33'713.1
2018-Jan-23 12:00S 29°55' E 031°41'2 3.6
2018-Jan-23 11:30S 29°54' E 031°42'2 4.3
2018-Jan-23 11:00S 29°52' E 031°43'2 4.3
2018-Jan-23 10:30S 29°50' E 031°43'2 4.0
2018-Jan-23 10:00S 29°48' E 031°43'2 3.6
2018-Jan-23 09:30S 29°46' E 031°43'2 3.3
2018-Jan-23 09:00S 29°44' E 031°43'1 2.5
2018-Jan-23 08:30S 29°43' E 031°43'1 2.1
2018-Jan-23 08:00S 29°42' E 031°42'1 1.9
2018-Jan-23 07:30S 29°41' E 031°42'1 2.0
2018-Jan-23 07:00S 29°40' E 031°42'1 2.1
2018-Jan-23 06:30S 29°39' E 031°41'1 2.1
2018-Jan-23 06:00S 29°38' E 031°41'1 2.3
2018-Jan-23 05:30S 29°37' E 031°40'1 2.1
2018-Jan-23 05:00S 29°36' E 031°40'1 2.2
2018-Jan-23 04:28S 29°35' E 031°40'1 2.2
2018-Jan-23 03:52S 29°33' E 031°39'1 2.0
2018-Jan-23 03:28S 29°33' E 031°39'1 2.1
2018-Jan-23 03:01S 29°32' E 031°38'5 7.5
2018-Jan-23 02:21S 29°28' E 031°42'310.0
2018-Jan-23 02:00S 29°26' E 031°45'510.0
2018-Jan-23 01:30S 29°23' E 031°50'510.1
2018-Jan-23 01:00S 29°19' E 031°54'510.2
2018-Jan-23 00:30S 29°16' E 031°58'6 9.9
2018-Jan-22 23:55S 29°13' E 032°04'4 9.8
2018-Jan-22 23:30S 29°10' E 032°07'5 9.9
2018-Jan-22 23:00S 29°07' E 032°11'510.6
2018-Jan-22 22:30S 29°03' E 032°16'611.7
2018-Jan-22 21:59S 28°59' E 032°21'611.8
2018-Jan-22 21:30S 28°55' E 032°26'611.6
2018-Jan-22 21:00S 28°51' E 032°30'711.4
2018-Jan-22 20:24S 28°46' E 032°35'611.6
2018-Jan-22 19:55S 28°42' E 032°40'512.7
2018-Jan-22 19:30S 28°38' E 032°44'612.4
2018-Jan-22 19:00S 28°33' E 032°49'612.1
2018-Jan-22 18:30S 28°29' E 032°54'711.9
2018-Jan-22 17:56S 28°24' E 032°58'511.7
2018-Jan-22 17:30S 28°20' E 033°02'811.8
2018-Jan-22 16:52S 28°14' E 033°07'1811.8
2018-Jan-22 15:21S 27°60' E 033°20'510.6
2018-Jan-22 14:54S 27°57' E 033°24'  

Dump ship's entire track history